createdAt,value
2018-04-29T00:03:02.921Z,4.87
2018-04-29T00:06:06.559Z,5.07
2018-04-29T00:09:09.882Z,5.67
2018-04-29T00:12:13.201Z,5.90
2018-04-29T00:15:16.600Z,5.87
2018-04-29T00:18:19.889Z,5.90
2018-04-29T00:21:23.304Z,5.83
2018-04-29T00:24:26.519Z,6.30
2018-04-29T00:27:30.554Z,5.97
2018-04-29T00:30:33.923Z,6.13
2018-04-29T00:33:37.252Z,5.93
2018-04-29T00:36:40.548Z,5.70
2018-04-29T00:39:43.912Z,5.77
2018-04-29T00:42:47.195Z,5.90
2018-04-29T00:45:52.476Z,6.60
2018-04-29T00:48:55.855Z,6.53
2018-04-29T00:52:08.178Z,7.20
2018-04-29T00:55:11.545Z,6.23
2018-04-29T00:58:14.856Z,6.70
2018-04-29T01:01:18.621Z,5.77
2018-04-29T01:04:21.879Z,6.10
2018-04-29T01:07:25.268Z,6.67
2018-04-29T01:10:28.560Z,6.70
2018-04-29T01:13:32.277Z,7.07
2018-04-29T01:16:35.493Z,6.30
2018-04-29T01:19:38.833Z,6.80
2018-04-29T01:22:42.182Z,6.87
2018-04-29T01:25:45.551Z,6.70
2018-04-29T01:28:48.870Z,6.47
2018-04-29T01:31:52.258Z,6.60
2018-04-29T01:34:55.560Z,6.93
2018-04-29T01:37:59.948Z,7.40
2018-04-29T01:41:03.301Z,6.60
2018-04-29T01:44:06.684Z,7.67
2018-04-29T01:47:10.112Z,7.27
2018-04-29T01:50:13.300Z,7.33
2018-04-29T01:53:16.701Z,7.93
2018-04-29T01:56:20.091Z,7.57
2018-04-29T01:59:23.388Z,7.83
2018-04-29T02:02:26.773Z,7.23
2018-04-29T02:05:30.512Z,8.20
2018-04-29T02:08:33.873Z,7.80
2018-04-29T02:11:37.199Z,8.83
2018-04-29T02:14:40.575Z,7.90
2018-04-29T02:17:43.907Z,8.50
2018-04-29T02:20:47.273Z,8.43
2018-04-29T02:23:50.606Z,8.13
2018-04-29T02:26:54.022Z,9.03
2018-04-29T02:29:57.388Z,9.40
2018-04-29T02:33:01.609Z,10.03
2018-04-29T02:36:04.889Z,10.10
2018-04-29T02:39:08.184Z,10.10
2018-04-29T02:42:11.491Z,9.90
2018-04-29T02:45:14.726Z,10.80
2018-04-29T02:48:18.114Z,9.83
2018-04-29T02:51:21.465Z,11.00
2018-04-29T02:54:24.784Z,10.40
2018-04-29T02:57:28.178Z,10.53
2018-04-29T03:00:32.565Z,8.97
2018-04-29T03:03:35.836Z,10.30
2018-04-29T03:06:39.004Z,9.70
2018-04-29T03:09:42.384Z,10.80
2018-04-29T03:12:45.772Z,13.30
2018-04-29T03:15:49.188Z,14.40
2018-04-29T03:18:52.481Z,13.07
2018-04-29T03:21:55.780Z,13.40
2018-04-29T03:24:59.664Z,13.37
2018-04-29T03:28:02.921Z,14.17
2018-04-29T03:31:06.296Z,14.53
2018-04-29T03:34:09.583Z,14.80
2018-04-29T03:37:13.010Z,13.77
2018-04-29T03:40:16.284Z,13.63
2018-04-29T03:43:19.581Z,12.47
2018-04-29T03:46:22.984Z,13.10
2018-04-29T03:49:26.191Z,9.93
2018-04-29T03:52:30.467Z,9.80
2018-04-29T03:55:33.904Z,11.07
2018-04-29T03:59:48.689Z,10.97
2018-04-29T04:03:03.357Z,11.07
2018-04-29T04:06:06.764Z,11.73
2018-04-29T04:09:10.035Z,13.07
2018-04-29T04:12:13.286Z,12.07
2018-04-29T04:15:16.597Z,12.43
2018-04-29T04:18:19.952Z,11.97
2018-04-29T04:21:23.218Z,12.63
2018-04-29T04:24:26.545Z,11.93
2018-04-29T04:27:30.608Z,12.00
2018-04-29T04:30:33.933Z,12.03
2018-04-29T04:33:37.185Z,11.97
2018-04-29T04:36:40.529Z,11.07
2018-04-29T04:39:43.853Z,11.33
2018-04-29T04:42:49.176Z,7.93
2018-04-29T04:45:52.415Z,5.03
2018-04-29T04:48:55.670Z,4.63
2018-04-29T04:51:59.753Z,4.90
2018-04-29T04:55:03.077Z,4.47
2018-04-29T04:58:07.466Z,6.73
2018-04-29T05:01:10.705Z,5.80
2018-04-29T05:04:14.097Z,7.40
2018-04-29T05:07:17.408Z,7.77
2018-04-29T05:10:20.689Z,7.63
2018-04-29T05:13:23.991Z,8.37
2018-04-29T05:16:32.720Z,7.80
2018-04-29T05:19:37.057Z,7.73
2018-04-29T05:22:40.380Z,7.20
2018-04-29T05:25:43.765Z,7.23
2018-04-29T05:28:47.148Z,6.60
2018-04-29T05:31:50.537Z,6.83
2018-04-29T05:34:53.832Z,7.53
2018-04-29T05:37:57.231Z,7.40
2018-04-29T05:41:01.425Z,8.87
2018-04-29T05:44:04.753Z,11.37
2018-04-29T05:47:08.045Z,12.03
2018-04-29T05:50:11.276Z,13.10
2018-04-29T05:53:14.623Z,13.67
2018-04-29T05:56:17.936Z,14.87
2018-04-29T05:59:21.360Z,16.67
2018-04-29T06:02:24.646Z,16.93
2018-04-29T06:05:28.036Z,19.73
2018-04-29T06:08:32.381Z,20.30
2018-04-29T06:11:39.941Z,22.20
2018-04-29T06:14:43.255Z,22.67
2018-04-29T06:17:46.546Z,21.30
2018-04-29T06:20:49.871Z,17.67
2018-04-29T06:23:53.092Z,15.33
2018-04-29T06:26:56.439Z,14.10
2018-04-29T06:30:00.850Z,14.20
2018-04-29T06:33:04.290Z,12.63
2018-04-29T06:36:07.699Z,12.30
2018-04-29T06:39:10.960Z,12.93
2018-04-29T06:42:14.265Z,11.97
2018-04-29T06:45:17.658Z,14.83
2018-04-29T06:48:20.903Z,15.50
2018-04-29T06:51:24.040Z,17.33
2018-04-29T06:54:27.673Z,17.33
2018-04-29T06:57:31.885Z,19.33
2018-04-29T07:00:35.302Z,18.93
2018-04-29T07:03:38.418Z,19.40
2018-04-29T07:06:42.045Z,18.97
2018-04-29T07:09:45.372Z,14.40
2018-04-29T07:12:48.779Z,10.10
2018-04-29T07:15:52.087Z,8.87
2018-04-29T07:18:55.490Z,8.47
2018-04-29T07:21:59.863Z,7.00
2018-04-29T07:25:03.171Z,4.20
2018-04-29T07:28:06.487Z,3.67
2018-04-29T07:31:09.873Z,5.53
2018-04-29T07:34:13.180Z,6.77
2018-04-29T07:37:16.480Z,4.80
2018-04-29T07:40:19.978Z,3.57
2018-04-29T07:43:23.539Z,3.53
2018-04-29T07:46:26.938Z,3.40
2018-04-29T07:49:30.715Z,3.77
2018-04-29T07:52:34.141Z,3.17
2018-04-29T07:55:37.419Z,3.57
2018-04-29T07:58:40.821Z,3.40
2018-04-29T08:01:44.343Z,3.50
2018-04-29T08:04:47.760Z,3.40
2018-04-29T08:07:51.095Z,4.10
2018-04-29T08:10:54.828Z,3.00
2018-04-29T08:13:58.604Z,3.50
2018-04-29T08:17:01.777Z,3.60
2018-04-29T08:20:05.005Z,3.67
2018-04-29T08:23:08.293Z,3.20
2018-04-29T08:26:12.649Z,3.37
2018-04-29T08:29:17.128Z,3.40
2018-04-29T08:32:21.247Z,3.37
2018-04-29T08:35:24.737Z,3.07
2018-04-29T08:38:28.060Z,2.80
2018-04-29T08:41:31.533Z,3.17
2018-04-29T08:44:34.853Z,2.80
2018-04-29T08:47:38.919Z,3.23
2018-04-29T08:50:43.195Z,3.20
2018-04-29T08:53:46.567Z,2.97
2018-04-29T08:56:49.737Z,2.90
2018-04-29T08:59:52.953Z,2.80
2018-04-29T09:02:56.256Z,3.20
2018-04-29T09:05:59.491Z,4.67
2018-04-29T09:09:03.952Z,4.43
2018-04-29T09:12:07.305Z,4.17
2018-04-29T09:15:11.273Z,4.17
2018-04-29T09:18:14.607Z,4.60
2018-04-29T09:21:18.023Z,4.03
2018-04-29T09:24:21.225Z,3.20
2018-04-29T09:27:24.564Z,3.13
2018-04-29T09:30:27.934Z,3.10
2018-04-29T09:33:31.306Z,3.33
2018-04-29T09:36:34.688Z,3.70
2018-04-29T09:39:38.008Z,3.57
2018-04-29T09:42:42.666Z,3.23
2018-04-29T09:45:45.896Z,2.80
2018-04-29T09:48:49.260Z,3.30
2018-04-29T09:51:52.656Z,2.83
2018-04-29T09:54:56.106Z,2.93
2018-04-29T09:57:59.463Z,3.60
2018-04-29T10:01:06.992Z,3.83
2018-04-29T10:04:10.889Z,3.37
2018-04-29T10:07:14.255Z,3.20
2018-04-29T10:10:17.715Z,3.57
2018-04-29T10:13:20.960Z,3.60
2018-04-29T10:16:24.216Z,3.50
2018-04-29T10:19:27.629Z,3.57
2018-04-29T10:22:30.849Z,4.10
2018-04-29T10:25:34.137Z,3.40
2018-04-29T10:28:37.521Z,3.50
2018-04-29T10:31:41.657Z,3.20
2018-04-29T10:34:45.028Z,3.53
2018-04-29T10:37:48.691Z,3.33
2018-04-29T10:40:52.096Z,3.30
2018-04-29T10:43:55.436Z,3.30
2018-04-29T10:46:59.009Z,3.33
2018-04-29T10:50:03.349Z,3.40
2018-04-29T10:53:06.604Z,3.43
2018-04-29T10:56:10.569Z,3.83
2018-04-29T10:59:14.132Z,3.33
2018-04-29T11:02:17.428Z,3.60
2018-04-29T11:05:20.730Z,4.00
2018-04-29T11:08:24.091Z,3.83
2018-04-29T11:11:27.263Z,3.53
2018-04-29T11:14:30.493Z,3.00
2018-04-29T11:17:33.761Z,3.50
2018-04-29T11:20:37.039Z,3.55
2018-04-29T11:23:40.366Z,2.80
2018-04-29T11:26:44.327Z,3.47
2018-04-29T11:29:48.717Z,3.40
2018-04-29T11:32:52.067Z,3.20
2018-04-29T11:35:55.486Z,3.22
2018-04-29T11:38:59.685Z,3.20
2018-04-29T11:42:03.206Z,2.90
2018-04-29T11:45:06.536Z,3.40
2018-04-29T11:48:10.872Z,3.40
2018-04-29T11:51:14.899Z,3.43
2018-04-29T11:54:18.795Z,3.20
2018-04-29T11:57:22.200Z,3.10
2018-04-29T12:00:26.612Z,3.30
2018-04-29T12:03:30.016Z,2.92
2018-04-29T12:06:33.317Z,3.22
2018-04-29T12:09:36.737Z,2.90
2018-04-29T12:12:40.115Z,2.70
2018-04-29T12:15:44.499Z,3.00
2018-04-29T12:18:47.909Z,3.00
2018-04-29T12:21:51.232Z,2.87
2018-04-29T12:24:54.569Z,3.00
2018-04-29T12:27:59.340Z,3.03
2018-04-29T12:31:02.660Z,3.20
2018-04-29T12:34:06.053Z,2.80
2018-04-29T12:37:09.242Z,2.80
2018-04-29T12:40:13.459Z,2.60
2018-04-29T12:43:16.889Z,2.97
2018-04-29T12:46:20.279Z,3.23
2018-04-29T12:49:23.552Z,2.47
2018-04-29T12:52:27.757Z,3.00
2018-04-29T12:55:31.079Z,2.70
2018-04-29T12:58:34.303Z,3.00
2018-04-29T13:01:37.599Z,3.00
2018-04-29T13:04:40.979Z,2.73
2018-04-29T13:07:44.187Z,3.07
2018-04-29T13:10:48.596Z,2.57
2018-04-29T13:13:51.983Z,2.70
2018-04-29T13:16:56.190Z,2.40
2018-04-29T13:19:59.560Z,2.83
2018-04-29T13:23:02.914Z,2.50
2018-04-29T13:26:06.258Z,2.70
2018-04-29T13:29:09.768Z,2.80
2018-04-29T13:32:13.120Z,3.10
2018-04-29T13:35:16.445Z,2.97
2018-04-29T13:38:19.804Z,2.57
2018-04-29T13:41:23.104Z,2.63
2018-04-29T13:44:26.523Z,2.63
2018-04-29T13:47:29.896Z,2.83
2018-04-29T13:50:33.103Z,2.70
2018-04-29T13:53:36.359Z,2.80
2018-04-29T13:56:39.705Z,2.75
2018-04-29T13:59:42.963Z,2.60
2018-04-29T14:02:46.296Z,2.50
2018-04-29T14:05:49.683Z,2.30
2018-04-29T14:08:52.959Z,2.40
2018-04-29T14:11:57.565Z,2.50
2018-04-29T14:15:00.960Z,2.40
2018-04-29T14:18:05.340Z,2.50
2018-04-29T14:21:08.742Z,2.33
2018-04-29T14:24:12.083Z,2.67
2018-04-29T14:27:15.255Z,2.40
2018-04-29T14:30:18.523Z,2.80
2018-04-29T14:33:21.940Z,2.57
2018-04-29T14:36:25.990Z,3.00
2018-04-29T14:39:29.344Z,2.60
2018-04-29T14:42:33.640Z,2.87
2018-04-29T14:45:36.993Z,3.03
2018-04-29T14:48:40.279Z,2.70
2018-04-29T14:51:43.675Z,2.70
2018-04-29T14:54:46.945Z,2.77
2018-04-29T14:57:51.410Z,2.80
2018-04-29T15:00:55.622Z,2.80
2018-04-29T15:03:58.825Z,2.70
2018-04-29T15:07:02.090Z,2.57
2018-04-29T15:10:05.421Z,2.73
2018-04-29T15:13:08.804Z,2.57
2018-04-29T15:16:12.095Z,2.60
2018-04-29T15:19:15.373Z,2.87
2018-04-29T15:22:19.865Z,2.97
2018-04-29T15:25:24.711Z,3.00
2018-04-29T15:28:27.988Z,2.93
2018-04-29T15:31:31.366Z,3.07
2018-04-29T15:34:34.724Z,2.80
2018-04-29T15:37:38.042Z,2.57
2018-04-29T15:40:41.456Z,2.90
2018-04-29T15:43:44.832Z,2.87
2018-04-29T15:46:50.174Z,3.10
2018-04-29T15:49:53.392Z,2.83
2018-04-29T15:52:57.711Z,2.50
2018-04-29T15:56:01.088Z,2.60
2018-04-29T15:59:04.466Z,2.50
2018-04-29T16:02:07.603Z,2.63
2018-04-29T16:05:10.997Z,2.90
2018-04-29T16:08:14.361Z,2.90
2018-04-29T16:11:17.708Z,2.87
2018-04-29T16:14:20.944Z,2.60
2018-04-29T16:17:24.257Z,3.10
2018-04-29T16:20:28.376Z,2.63
2018-04-29T16:23:31.790Z,2.80
2018-04-29T16:26:35.087Z,3.30
2018-04-29T16:29:38.355Z,2.60
2018-04-29T16:32:41.701Z,3.03
2018-04-29T16:35:44.993Z,2.80
2018-04-29T16:38:48.380Z,2.80
2018-04-29T16:41:51.652Z,3.40
2018-04-29T16:44:55.525Z,3.33
2018-04-29T16:47:58.816Z,2.80
2018-04-29T16:51:02.182Z,2.53
2018-04-29T16:54:05.555Z,2.67
2018-04-29T16:57:08.912Z,2.97
2018-04-29T17:00:13.283Z,3.00
2018-04-29T17:03:16.632Z,3.07
2018-04-29T17:06:19.927Z,2.90
2018-04-29T17:09:23.268Z,2.93
2018-04-29T17:12:27.470Z,2.83
2018-04-29T17:15:30.801Z,3.30
2018-04-29T17:18:35.161Z,3.20
2018-04-29T17:21:38.457Z,3.00
2018-04-29T17:24:42.525Z,3.20
2018-04-29T17:27:45.861Z,3.23
2018-04-29T17:30:49.231Z,2.50
2018-04-29T17:33:52.600Z,2.90
2018-04-29T17:36:55.985Z,2.97
2018-04-29T17:39:59.307Z,3.10
2018-04-29T17:43:02.620Z,3.00
2018-04-29T17:46:05.890Z,3.00
2018-04-29T17:49:09.227Z,3.73
2018-04-29T17:52:13.756Z,3.20
2018-04-29T17:55:19.100Z,2.90
2018-04-29T17:58:23.655Z,3.17
2018-04-29T18:01:28.185Z,2.87
2018-04-29T18:04:31.472Z,2.97
2018-04-29T18:07:34.667Z,2.40
2018-04-29T18:10:38.055Z,2.90
2018-04-29T18:13:43.336Z,3.07
2018-04-29T18:16:46.621Z,3.00
2018-04-29T18:19:49.940Z,2.60
2018-04-29T18:22:53.226Z,2.57
2018-04-29T18:25:56.600Z,2.90
2018-04-29T18:29:00.040Z,3.17
2018-04-29T18:32:03.387Z,2.90
2018-04-29T18:35:06.597Z,2.77
2018-04-29T18:38:09.990Z,2.77
2018-04-29T18:41:13.892Z,3.10
2018-04-29T18:44:17.280Z,3.10
2018-04-29T18:47:20.491Z,2.90
2018-04-29T18:50:23.848Z,2.95
2018-04-29T18:53:27.071Z,2.80
2018-04-29T18:56:30.442Z,2.73
2018-04-29T18:59:33.796Z,2.70
2018-04-29T19:02:37.191Z,3.10
2018-04-29T19:05:44.077Z,2.80
2018-04-29T19:08:47.774Z,3.08
2018-04-29T19:11:51.075Z,2.93
2018-04-29T19:14:54.751Z,2.58
2018-04-29T19:17:58.050Z,3.00
2018-04-29T19:21:01.302Z,2.87
2018-04-29T19:24:05.700Z,3.07
2018-04-29T19:27:08.751Z,3.05
2018-04-29T19:30:13.334Z,2.80
2018-04-29T19:33:16.634Z,3.30
2018-04-29T19:36:20.021Z,2.67
2018-04-29T19:39:23.316Z,3.20
2018-04-29T19:42:26.708Z,3.03
2018-04-29T19:45:30.045Z,2.85
2018-04-29T19:48:33.344Z,3.42
2018-04-29T19:51:38.644Z,2.90
2018-04-29T19:54:41.935Z,2.90
2018-04-29T19:57:45.248Z,3.20
2018-04-29T20:00:48.570Z,3.02
2018-04-29T20:03:51.749Z,3.30
2018-04-29T20:06:54.977Z,3.05
2018-04-29T20:09:58.234Z,2.63
2018-04-29T20:13:02.675Z,2.77
2018-04-29T20:16:06.005Z,2.63
2018-04-29T20:19:09.356Z,3.33
2018-04-29T20:22:12.734Z,2.80
2018-04-29T20:25:16.059Z,2.83
2018-04-29T20:28:20.485Z,2.80
2018-04-29T20:31:23.699Z,2.63
2018-04-29T20:34:26.970Z,2.90
2018-04-29T20:37:31.069Z,2.90
2018-04-29T20:40:34.209Z,2.60
2018-04-29T20:43:37.599Z,2.97
2018-04-29T20:46:41.017Z,2.87
2018-04-29T20:49:44.649Z,2.93
2018-04-29T20:52:48.462Z,3.00
2018-04-29T20:55:51.839Z,3.17
2018-04-29T20:58:55.699Z,3.12
2018-04-29T21:01:58.896Z,2.80
2018-04-29T21:05:02.609Z,2.87
2018-04-29T21:08:05.911Z,2.90
2018-04-29T21:11:09.691Z,2.80
2018-04-29T21:14:13.258Z,2.80
2018-04-29T21:17:16.571Z,3.10
2018-04-29T21:20:19.905Z,2.80
2018-04-29T21:23:23.192Z,3.03
2018-04-29T21:26:27.565Z,3.20
2018-04-29T21:29:31.728Z,3.20
2018-04-29T21:32:35.023Z,3.07
2018-04-29T21:35:38.357Z,3.30
2018-04-29T21:38:41.775Z,2.85
2018-04-29T21:41:45.124Z,3.17
2018-04-29T21:44:48.436Z,3.33
2018-04-29T21:47:51.739Z,3.27
2018-04-29T21:50:55.040Z,3.30
2018-04-29T21:53:58.416Z,3.45
2018-04-29T21:57:02.632Z,3.20
2018-04-29T22:00:05.949Z,3.50
2018-04-29T22:03:09.345Z,2.90
2018-04-29T22:06:12.662Z,3.20
2018-04-29T22:09:16.708Z,3.40
2018-04-29T22:12:19.980Z,3.22
2018-04-29T22:15:23.785Z,3.77
2018-04-29T22:18:27.049Z,3.30
2018-04-29T22:21:31.250Z,3.12
2018-04-29T22:24:34.409Z,3.55
2018-04-29T22:27:38.473Z,3.43
2018-04-29T22:30:41.719Z,2.90
2018-04-29T22:33:45.072Z,3.10
2018-04-29T22:36:48.309Z,3.25
2018-04-29T22:39:51.569Z,3.37
2018-04-29T22:42:54.977Z,3.27
2018-04-29T22:45:58.477Z,2.90
2018-04-29T22:49:02.872Z,4.10
2018-04-29T22:52:06.151Z,4.30
2018-04-29T22:55:09.495Z,3.80
2018-04-29T22:58:12.758Z,3.63
2018-04-29T23:01:16.148Z,3.57
2018-04-29T23:04:19.492Z,3.25
2018-04-29T23:07:22.867Z,3.13
2018-04-29T23:10:26.294Z,2.90
2018-04-29T23:13:29.594Z,2.43
2018-04-29T23:16:32.978Z,3.37
2018-04-29T23:19:36.172Z,3.02
2018-04-29T23:22:39.469Z,2.93
2018-04-29T23:25:42.879Z,2.80
2018-04-29T23:28:46.250Z,2.93
2018-04-29T23:31:49.512Z,2.13
2018-04-29T23:34:52.864Z,2.27
2018-04-29T23:37:56.172Z,2.07
2018-04-29T23:40:59.419Z,1.90
2018-04-29T23:44:03.794Z,2.10
2018-04-29T23:47:07.239Z,1.70
2018-04-29T23:50:10.627Z,1.50
2018-04-29T23:53:15.016Z,1.40
2018-04-29T23:56:18.236Z,1.30
2018-04-29T23:59:21.481Z,1.27
